createdAt,value
2022-08-10T00:01:44.624Z,20.90
2022-08-10T00:04:21.107Z,20.80
2022-08-10T00:06:51.065Z,20.80
2022-08-10T00:09:18.279Z,20.70
2022-08-10T00:11:45.474Z,20.70
2022-08-10T00:14:12.712Z,20.70
2022-08-10T00:16:39.945Z,20.70
2022-08-10T00:19:07.201Z,20.60
2022-08-10T00:21:34.413Z,20.60
2022-08-10T00:24:01.641Z,20.50
2022-08-10T00:27:55.584Z,20.50
2022-08-10T00:29:16.138Z,20.50
2022-08-10T00:31:58.114Z,20.40
2022-08-10T00:34:28.319Z,20.40
2022-08-10T00:36:56.252Z,20.30
2022-08-10T00:39:24.148Z,20.30
2022-08-10T00:42:06.925Z,20.20
2022-08-10T00:44:46.062Z,20.20
2022-08-10T00:47:21.421Z,20.20
2022-08-10T00:50:02.231Z,20.10
2022-08-10T00:52:30.722Z,20.10
2022-08-10T00:54:58.953Z,20.10
2022-08-10T00:57:30.082Z,20.00
2022-08-10T01:00:00.131Z,20.00
2022-08-10T01:02:30.176Z,20.00
2022-08-10T01:05:02.243Z,19.90
2022-08-10T01:07:35.900Z,19.90
2022-08-10T01:10:15.715Z,19.90
2022-08-10T01:13:09.269Z,19.80
2022-08-10T01:15:56.808Z,19.80
2022-08-10T01:18:34.725Z,19.80
2022-08-10T01:21:23.025Z,19.80
2022-08-10T01:24:25.122Z,19.70
2022-08-10T01:27:17.675Z,19.60
2022-08-10T01:30:00.421Z,19.60
2022-08-10T01:32:51.593Z,19.50
2022-08-10T01:35:35.305Z,19.50
2022-08-10T01:38:08.722Z,19.50
2022-08-10T01:40:41.624Z,19.50
2022-08-10T01:43:10.168Z,19.40
2022-08-10T01:45:44.796Z,19.40
2022-08-10T01:48:25.047Z,19.40
2022-08-10T01:51:03.229Z,19.40
2022-08-10T01:53:40.998Z,19.30
2022-08-10T01:56:12.078Z,19.30
2022-08-10T01:58:40.353Z,19.30
2022-08-10T02:01:16.613Z,19.30
2022-08-10T02:04:04.462Z,19.20
2022-08-10T02:06:38.392Z,19.20
2022-08-10T02:09:07.897Z,19.20
2022-08-10T02:11:55.759Z,19.10
2022-08-10T02:14:34.515Z,19.20
2022-08-10T02:17:59.807Z,19.10
2022-08-10T02:20:14.511Z,19.10
2022-08-10T02:22:45.307Z,19.10
2022-08-10T02:25:40.960Z,19.10
2022-08-10T02:28:04.004Z,19.00
2022-08-10T02:30:32.473Z,19.00
2022-08-10T02:33:01.408Z,18.90
2022-08-10T02:35:33.453Z,18.90
2022-08-10T02:38:22.986Z,18.90
2022-08-10T02:45:01.377Z,18.90
2022-08-10T02:45:19.602Z,18.90
2022-08-10T02:47:05.949Z,18.90
2022-08-10T02:49:42.622Z,18.80
2022-08-10T02:52:17.733Z,18.80
2022-08-10T02:55:04.694Z,18.70
2022-08-10T02:58:12.521Z,18.70
2022-08-10T03:00:59.910Z,18.70
2022-08-10T03:03:32.989Z,18.60
2022-08-10T03:06:05.475Z,18.60
2022-08-10T03:08:36.261Z,18.60
2022-08-10T03:11:04.877Z,18.60
2022-08-10T03:13:33.681Z,18.50
2022-08-10T03:16:02.498Z,18.50
2022-08-10T03:18:31.934Z,18.50
2022-08-10T03:21:00.005Z,18.50
2022-08-10T03:23:28.218Z,18.50
2022-08-10T03:25:57.841Z,18.40
2022-08-10T03:28:30.117Z,18.40
2022-08-10T03:33:29.933Z,18.30
2022-08-10T03:36:42.878Z,18.30
2022-08-10T03:38:44.689Z,18.30
2022-08-10T03:41:15.911Z,18.30
2022-08-10T03:43:47.485Z,18.20
2022-08-10T03:46:18.174Z,18.20
2022-08-10T03:48:49.023Z,18.20
2022-08-10T03:51:19.241Z,18.10
2022-08-10T03:54:04.472Z,18.10
2022-08-10T03:56:36.686Z,18.00
2022-08-10T03:59:06.675Z,18.10
2022-08-10T04:02:43.557Z,18.00
2022-08-10T04:04:24.485Z,18.00
2022-08-10T04:06:55.729Z,18.00
2022-08-10T04:09:42.890Z,18.00
2022-08-10T04:12:16.281Z,18.00
2022-08-10T04:14:51.001Z,17.90
2022-08-10T04:18:05.067Z,17.90
2022-08-10T04:20:34.530Z,17.90
2022-08-10T04:23:07.678Z,17.90
2022-08-10T04:25:36.028Z,18.00
2022-08-10T04:28:04.005Z,18.00
2022-08-10T04:30:32.727Z,18.00
2022-08-10T04:33:02.639Z,18.10
2022-08-10T04:35:31.928Z,18.10
2022-08-10T04:38:01.060Z,18.20
2022-08-10T04:40:31.039Z,18.30
2022-08-10T04:43:04.417Z,18.30
2022-08-10T04:45:47.395Z,18.50
2022-08-10T04:48:42.687Z,18.70
2022-08-10T04:51:18.524Z,18.90
2022-08-10T04:54:04.518Z,18.90
2022-08-10T04:56:36.123Z,19.00
2022-08-10T04:59:04.285Z,19.10
2022-08-10T05:02:12.142Z,19.80
2022-08-10T06:44:54.341Z,25.00
2022-08-10T09:06:59.292Z,26.70
2022-08-10T09:09:29.936Z,26.80
2022-08-10T09:12:16.806Z,26.80
2022-08-10T09:14:59.622Z,26.70
2022-08-10T09:17:40.512Z,26.90
2022-08-10T09:20:32.940Z,27.10
2022-08-10T09:24:02.218Z,27.30
2022-08-10T09:26:42.406Z,27.30
2022-08-10T09:29:26.669Z,26.80
2022-08-10T09:36:14.252Z,27.10
2022-08-10T09:36:22.293Z,27.40
2022-08-10T09:38:24.706Z,27.20
2022-08-10T09:41:12.349Z,27.50
2022-08-10T09:43:56.751Z,27.70
2022-08-10T09:46:38.704Z,27.50
2022-08-10T09:49:11.716Z,27.70
2022-08-10T09:51:56.565Z,27.40
2022-08-10T09:54:51.466Z,27.60
2022-08-10T09:57:57.044Z,27.50
2022-08-10T10:00:32.179Z,27.60
2022-08-10T10:03:26.200Z,27.80
2022-08-10T10:06:20.010Z,28.00
2022-08-10T10:09:10.311Z,27.60
2022-08-10T10:11:56.937Z,28.00
2022-08-10T10:14:54.329Z,28.20
2022-08-10T10:17:45.618Z,28.40
2022-08-10T10:21:09.818Z,28.60
2022-08-10T10:24:19.793Z,28.60
2022-08-10T10:26:42.835Z,28.70
2022-08-10T10:29:57.129Z,28.50
2022-08-10T10:33:00.709Z,28.50
2022-08-10T10:35:38.722Z,28.40
2022-08-10T10:38:10.543Z,28.60
2022-08-10T10:40:44.774Z,28.60
2022-08-10T10:43:30.179Z,28.50
2022-08-10T10:46:10.476Z,28.90
2022-08-10T10:48:42.811Z,28.60
2022-08-10T10:51:12.889Z,28.90
2022-08-10T10:54:24.199Z,29.10
2022-08-10T10:56:57.390Z,29.30
2022-08-10T11:00:02.395Z,29.20
2022-08-10T11:02:41.661Z,29.30
2022-08-10T11:05:17.718Z,29.50
2022-08-10T11:08:03.405Z,29.80
2022-08-10T11:10:53.076Z,30.00
2022-08-10T11:14:23.029Z,29.70
2022-08-10T11:16:25.087Z,29.40
2022-08-10T11:19:03.799Z,29.30
2022-08-10T11:21:36.994Z,29.60
2022-08-10T11:24:42.548Z,29.60
2022-08-10T11:27:23.412Z,29.70
2022-08-10T11:30:03.996Z,29.80
2022-08-10T11:32:52.104Z,29.70
2022-08-10T11:35:41.121Z,29.80
2022-08-10T11:38:52.042Z,29.80
2022-08-10T11:42:08.885Z,30.10
2022-08-10T11:44:43.678Z,29.90
2022-08-10T11:47:37.737Z,29.70
2022-08-10T11:50:28.049Z,29.80
2022-08-10T11:52:58.993Z,29.80
2022-08-10T11:55:31.670Z,29.60
2022-08-10T11:58:04.587Z,29.70
2022-08-10T12:00:36.320Z,29.80
2022-08-10T12:03:07.401Z,29.60
2022-08-10T12:05:53.923Z,29.60
2022-08-10T12:10:07.176Z,29.70
2022-08-10T12:11:24.682Z,29.80
2022-08-10T12:14:23.378Z,29.80
2022-08-10T12:16:57.129Z,29.70
2022-08-10T12:19:59.921Z,29.90
2022-08-10T12:22:45.854Z,30.20
2022-08-10T12:25:55.831Z,30.30
2022-08-10T19:08:30.922Z,26.70
2022-08-10T19:11:27.293Z,26.80
2022-08-10T19:14:12.960Z,26.70
2022-08-10T19:16:53.569Z,26.50
2022-08-10T19:19:41.919Z,26.50
2022-08-10T19:22:28.796Z,26.40
2022-08-10T19:25:04.736Z,26.30
2022-08-10T19:27:59.457Z,26.30
2022-08-10T19:31:00.973Z,26.30
2022-08-10T19:34:11.459Z,26.20
2022-08-10T19:37:15.514Z,26.10
2022-08-10T19:40:09.858Z,26.00
2022-08-10T19:42:56.107Z,25.90
2022-08-10T19:46:01.079Z,25.80
2022-08-10T19:48:28.026Z,25.80
2022-08-10T19:50:57.726Z,25.70
2022-08-10T19:53:46.362Z,25.60
2022-08-10T19:56:32.976Z,25.60
2022-08-10T20:00:16.508Z,25.50
2022-08-10T20:02:22.400Z,25.50
2022-08-10T20:05:09.727Z,25.40
2022-08-10T20:08:03.397Z,25.40
2022-08-10T20:10:42.618Z,25.40
2022-08-10T20:13:24.064Z,25.30
2022-08-10T20:16:06.261Z,25.30
2022-08-10T20:18:48.165Z,25.30
2022-08-10T20:21:25.679Z,25.30
2022-08-10T20:24:03.071Z,25.30
2022-08-10T20:26:50.391Z,25.20
2022-08-10T20:29:57.376Z,25.10
2022-08-10T20:32:26.040Z,25.10
2022-08-10T20:35:06.682Z,25.10
2022-08-10T20:38:03.491Z,25.00
2022-08-10T20:40:49.091Z,25.00
2022-08-10T20:43:34.091Z,24.90
2022-08-10T20:46:22.180Z,24.80
2022-08-10T20:48:58.943Z,24.80
2022-08-10T20:51:59.225Z,24.80
2022-08-10T20:54:36.751Z,24.80
2022-08-10T20:57:54.385Z,24.70
2022-08-10T21:01:05.650Z,24.60
2022-08-10T21:03:43.946Z,24.60
2022-08-10T21:06:42.865Z,24.50
2022-08-10T21:09:49.806Z,24.50
2022-08-10T21:12:32.357Z,24.40
2022-08-10T21:15:42.057Z,24.30
2022-08-10T21:19:00.745Z,24.30
2022-08-10T21:21:59.448Z,24.20
2022-08-10T21:24:40.960Z,24.20
2022-08-10T21:27:42.301Z,24.10
2022-08-10T21:30:21.783Z,24.00
2022-08-10T21:32:59.318Z,23.90
2022-08-10T21:35:38.394Z,23.90
